Time;durP1;ratioP1;P1;durP2;ratioP2;P2;SDS_P1;SDS_P2;PMS_P1;PMS_P2;Temp;Humidity;BMP_temperature;BMP_pressure;BME280_temperature;BME280_humidity;BME280_pressure;Samples;Min_cycle;Max_cycle;Signal;HPM_P1;HPM_P2
2021/01/26 00:00:49;;;;;;;2.95;2.10;;;24.00;29.50;;;;;;5071219;28;20869;-58
2021/01/26 00:03:15;;;;;;;3.20;2.08;;;24.00;29.40;;;;;;5069070;28;20383;-58
2021/01/26 00:05:42;;;;;;;3.00;2.28;;;23.90;29.40;;;;;;5057261;28;20420;-58
2021/01/26 00:08:08;;;;;;;3.05;2.13;;;24.00;29.50;;;;;;5050601;28;20408;-58
2021/01/26 00:10:34;;;;;;;2.47;2.00;;;23.90;29.30;;;;;;5051064;28;20464;-58
2021/01/26 00:13:00;;;;;;;2.97;2.22;;;24.00;29.50;;;;;;5055066;28;20974;-58
2021/01/26 00:15:26;;;;;;;3.53;2.20;;;23.90;29.40;;;;;;5071093;28;20486;-59
2021/01/26 00:17:52;;;;;;;2.90;2.10;;;23.90;29.40;;;;;;5071254;28;20391;-58
2021/01/26 00:20:19;;;;;;;2.30;1.90;;;23.80;29.40;;;;;;5068890;28;20400;-58
2021/01/26 00:22:45;;;;;;;2.90;2.00;;;23.80;29.40;;;;;;5069616;28;20403;-58
2021/01/26 00:25:17;;;;;;;2.72;2.00;;;23.80;29.30;;;;;;5065621;28;20421;-58
2021/01/26 00:27:43;;;;;;;2.92;1.80;;;23.70;29.30;;;;;;5066306;28;20459;-58
2021/01/26 00:30:19;;;;;;;3.78;2.00;;;23.70;29.30;;;;;;5050372;28;20397;-58
2021/01/26 00:32:45;;;;;;;2.97;1.90;;;23.70;29.30;;;;;;5066393;28;20405;-58
2021/01/26 00:35:12;;;;;;;2.60;1.80;;;23.70;29.30;;;;;;5053192;28;20407;-58
2021/01/26 00:37:38;;;;;;;2.53;1.73;;;23.60;29.30;;;;;;5070933;28;20895;-59
2021/01/26 00:40:05;;;;;;;2.50;1.73;;;23.60;29.30;;;;;;5070305;28;20384;-58
2021/01/26 00:42:30;;;;;;;2.25;1.58;;;23.60;29.30;;;;;;5069275;28;20487;-58
2021/01/26 00:44:57;;;;;;;2.50;1.70;;;23.60;29.30;;;;;;5070900;28;20518;-58
2021/01/26 00:47:22;;;;;;;2.05;1.52;;;23.50;29.30;;;;;;5064411;28;20417;-58
2021/01/26 00:49:48;;;;;;;2.85;1.50;;;23.50;29.30;;;;;;5050415;28;20433;-58
2021/01/26 00:52:13;;;;;;;2.10;1.40;;;23.50;29.30;;;;;;5050130;28;20396;-58
2021/01/26 00:54:39;;;;;;;1.93;1.50;;;23.50;29.30;;;;;;5050666;28;20886;-58
2021/01/26 00:57:05;;;;;;;2.00;1.50;;;23.50;29.30;;;;;;5063467;28;20398;-58
2021/01/26 00:59:31;;;;;;;2.15;1.42;;;23.40;29.20;;;;;;5054395;28;20404;-58
2021/01/26 01:01:57;;;;;;;1.77;1.30;;;23.40;29.20;;;;;;5054091;28;20874;-58
2021/01/26 01:04:24;;;;;;;2.00;1.40;;;23.40;29.20;;;;;;5053538;28;20830;-58
2021/01/26 01:06:49;;;;;;;2.03;1.40;;;23.40;29.30;;;;;;5054125;28;20411;-58
2021/01/26 01:09:15;;;;;;;1.93;1.30;;;23.30;29.30;;;;;;5054096;28;20797;-58
2021/01/26 01:11:41;;;;;;;1.53;1.20;;;23.30;29.20;;;;;;5052602;28;20889;-58
2021/01/26 01:14:07;;;;;;;1.60;1.20;;;23.30;29.20;;;;;;5053496;28;20468;-58
2021/01/26 01:16:32;;;;;;;1.75;1.10;;;23.30;29.30;;;;;;5052565;28;20472;-58
2021/01/26 01:18:58;;;;;;;1.60;1.20;;;23.20;29.20;;;;;;5053968;28;20397;-58
2021/01/26 01:21:23;;;;;;;2.10;1.30;;;23.20;29.20;;;;;;5052546;28;20394;-58
2021/01/26 01:23:49;;;;;;;1.40;1.00;;;23.20;29.20;;;;;;5054633;28;20377;-58
2021/01/26 01:26:15;;;;;;;1.58;1.10;;;23.20;29.30;;;;;;5054060;28;20508;-58
2021/01/26 01:28:40;;;;;;;1.83;1.20;;;23.10;29.20;;;;;;5055176;28;20397;-58
2021/01/26 01:31:06;;;;;;;1.30;1.00;;;23.10;29.20;;;;;;5073591;28;20375;-58
2021/01/26 01:33:31;;;;;;;1.53;1.07;;;23.10;29.30;;;;;;5073331;28;20391;-59
2021/01/26 01:35:58;;;;;;;1.30;0.97;;;23.10;29.30;;;;;;5071542;28;20418;-58
2021/01/26 01:38:24;;;;;;;1.52;1.10;;;23.10;29.30;;;;;;5072638;28;20407;-58
2021/01/26 01:40:52;;;;;;;1.70;1.17;;;23.00;29.20;;;;;;5073251;28;20383;-58
2021/01/26 01:43:18;;;;;;;1.40;0.93;;;23.00;29.30;;;;;;5073389;28;20396;-58
2021/01/26 01:45:43;;;;;;;1.50;0.90;;;23.00;29.30;;;;;;5073352;28;20411;-58
2021/01/26 01:48:19;;;;;;;1.30;1.00;;;23.00;29.30;;;;;;5072675;28;20431;-59
2021/01/26 01:50:53;;;;;;;1.58;1.00;;;22.90;29.20;;;;;;5073091;28;20893;-58
2021/01/26 01:53:31;;;;;;;1.60;1.10;;;22.90;29.30;;;;;;5067058;28;20484;-58
2021/01/26 01:56:04;;;;;;;1.67;1.20;;;22.90;29.30;;;;;;5053124;28;20394;-58
2021/01/26 01:58:35;;;;;;;1.40;0.90;;;22.80;29.30;;;;;;5052571;28;20463;-58
2021/01/26 02:01:06;;;;;;;1.50;1.10;;;22.80;29.20;;;;;;5051674;28;20398;-58
2021/01/26 02:03:36;;;;;;;1.42;1.10;;;22.80;29.20;;;;;;5053154;28;20408;-59
2021/01/26 02:06:02;;;;;;;2.13;1.17;;;22.80;29.20;;;;;;5050958;28;20781;-59
2021/01/26 02:08:53;;;;;;;1.65;1.30;;;22.80;29.20;;;;;;5051804;28;20386;-58
2021/01/26 02:11:20;;;;;;;1.75;1.30;;;22.80;29.20;;;;;;5052752;28;20422;-58
2021/01/26 02:13:46;;;;;;;1.48;1.10;;;22.70;29.20;;;;;;5052889;28;20904;-58
2021/01/26 02:16:31;;;;;;;1.50;1.20;;;22.70;29.20;;;;;;5052423;28;20749;-58
2021/01/26 02:19:49;;;;;;;1.90;1.50;;;22.70;29.20;;;;;;5054575;28;20760;-58
2021/01/26 02:22:52;;;;;;;1.30;0.98;;;22.70;29.20;;;;;;5061878;28;20884;-58
2021/01/26 02:25:33;;;;;;;1.45;1.13;;;22.70;29.20;;;;;;5071613;28;20396;-58
2021/01/26 02:28:29;;;;;;;1.60;1.05;;;22.60;29.20;;;;;;5059306;28;20448;-58
2021/01/26 02:31:25;;;;;;;1.60;1.10;;;22.60;29.20;;;;;;5050898;28;20946;-58
2021/01/26 02:34:12;;;;;;;1.40;1.00;;;22.50;29.20;;;;;;5052174;28;20468;-58
2021/01/26 02:37:14;;;;;;;1.30;0.90;;;22.50;29.20;;;;;;5050661;28;20421;-58
2021/01/26 02:39:43;;;;;;;1.50;0.90;;;22.50;29.20;;;;;;5052095;28;20749;-58
2021/01/26 02:42:17;;;;;;;1.55;1.10;;;22.50;29.20;;;;;;5051851;28;20385;-59
2021/01/26 02:45:12;;;;;;;1.30;0.97;;;22.40;29.20;;;;;;5052227;28;20760;-59
2021/01/26 02:48:05;;;;;;;1.38;0.95;;;22.40;29.60;;;;;;5060763;28;20490;-59
2021/01/26 02:50:49;;;;;;;1.23;1.00;;;22.40;29.20;;;;;;5072012;28;20406;-59
2021/01/26 02:53:38;;;;;;;1.45;0.98;;;22.40;29.20;;;;;;5070836;28;20396;-58
2021/01/26 02:56:09;;;;;;;1.23;0.90;;;22.30;29.10;;;;;;5060295;28;20421;-59
2021/01/26 02:58:38;;;;;;;1.10;0.80;;;22.30;29.20;;;;;;5051820;28;20877;-58
2021/01/26 03:01:05;;;;;;;1.00;0.85;;;22.30;29.20;;;;;;5052006;28;20394;-58
2021/01/26 03:03:38;;;;;;;1.30;0.88;;;22.30;29.20;;;;;;5051832;28;20396;-58
2021/01/26 03:06:27;;;;;;;1.17;0.80;;;22.30;29.20;;;;;;5051254;28;20844;-58
2021/01/26 03:09:07;;;;;;;1.08;0.90;;;22.20;29.20;;;;;;5051348;28;20854;-58
2021/01/26 03:11:39;;;;;;;1.15;0.80;;;22.20;29.20;;;;;;5051781;28;20389;-58
2021/01/26 03:14:13;;;;;;;1.15;0.90;;;22.20;29.20;;;;;;5051550;28;20384;-58
2021/01/26 03:16:43;;;;;;;1.10;0.80;;;22.20;29.20;;;;;;5067451;28;20454;-58
2021/01/26 03:19:16;;;;;;;1.10;0.90;;;22.20;29.10;;;;;;5071429;28;20383;-58
2021/01/26 03:21:47;;;;;;;1.42;0.80;;;22.20;29.20;;;;;;5071099;28;20391;-59
2021/01/26 03:24:19;;;;;;;1.25;0.80;;;22.10;29.20;;;;;;5070645;28;20437;-58
2021/01/26 03:26:45;;;;;;;1.00;0.70;;;22.10;29.10;;;;;;5071630;28;20464;-58
2021/01/26 03:29:14;;;;;;;1.10;0.80;;;22.10;29.10;;;;;;5070061;28;20384;-58
2021/01/26 03:32:02;;;;;;;1.10;0.80;;;22.10;29.20;;;;;;5071629;28;20395;-58
2021/01/26 03:34:28;;;;;;;1.13;0.90;;;22.10;29.20;;;;;;5070456;28;20395;-58
2021/01/26 03:36:53;;;;;;;1.23;0.88;;;22.00;29.10;;;;;;5071613;28;20422;-58
2021/01/26 03:39:20;;;;;;;0.85;0.70;;;22.00;29.20;;;;;;5071176;28;20868;-58
2021/01/26 03:41:47;;;;;;;1.00;0.80;;;22.00;29.20;;;;;;5065674;28;20412;-58
2021/01/26 03:44:13;;;;;;;1.20;0.88;;;22.00;29.20;;;;;;5049243;28;20750;-58
2021/01/26 03:46:48;;;;;;;0.90;0.70;;;22.00;29.20;;;;;;5049980;28;20798;-58
2021/01/26 03:49:36;;;;;;;0.95;0.70;;;22.00;29.20;;;;;;5051288;28;20393;-58
2021/01/26 03:52:17;;;;;;;0.95;0.80;;;21.90;29.20;;;;;;5050824;28;20830;-58
2021/01/26 03:54:46;;;;;;;1.00;0.80;;;21.90;29.20;;;;;;5050900;28;20409;-58
2021/01/26 03:57:46;;;;;;;1.20;0.82;;;21.90;29.20;;;;;;5049658;28;20393;-58
2021/01/26 04:00:24;;;;;;;0.95;0.70;;;21.90;29.40;;;;;;5055230;28;20496;-59
2021/01/26 04:03:06;;;;;;;0.93;0.80;;;21.80;29.20;;;;;;5069901;28;20779;-58
2021/01/26 04:05:46;;;;;;;1.05;0.80;;;21.90;29.10;;;;;;5062066;28;20405;-59
2021/01/26 04:08:16;;;;;;;1.30;0.70;;;22.00;29.20;;;;;;5050594;28;20472;-59
2021/01/26 04:11:07;;;;;;;1.40;0.70;;;22.00;29.20;;;;;;5051284;28;20385;-59
2021/01/26 04:13:41;;;;;;;0.90;0.60;;;22.10;29.10;;;;;;5051176;28;20394;-59
2021/01/26 04:16:07;;;;;;;1.00;0.80;;;22.20;29.30;;;;;;5050617;28;20373;-59
2021/01/26 04:18:38;;;;;;;1.20;0.80;;;22.30;29.70;;;;;;5049642;28;20897;-59
2021/01/26 04:21:04;;;;;;;1.00;0.70;;;22.30;29.30;;;;;;5050937;28;20500;-59
2021/01/26 04:23:30;;;;;;;0.90;0.70;;;22.30;29.30;;;;;;5049175;28;20457;-59
2021/01/26 04:26:04;;;;;;;2.00;0.73;;;22.30;29.70;;;;;;5050746;28;20490;-59
2021/01/26 04:28:39;;;;;;;1.40;0.70;;;22.30;29.40;;;;;;5056825;28;20443;-59
2021/01/26 04:31:07;;;;;;;2.50;0.73;;;22.30;29.90;;;;;;5071561;28;20387;-58
2021/01/26 04:33:33;;;;;;;3.00;0.70;;;22.40;30.20;;;;;;5073406;28;20760;-58
2021/01/26 04:35:59;;;;;;;1.98;0.68;;;22.40;29.80;;;;;;5074484;28;20825;-58
2021/01/26 04:38:26;;;;;;;1.70;0.70;;;22.50;29.90;;;;;;5053534;28;20798;-59
2021/01/26 04:41:19;;;;;;;1.20;0.68;;;22.50;30.00;;;;;;5053328;28;20435;-58
2021/01/26 04:44:25;;;;;;;1.80;0.70;;;22.50;29.90;;;;;;5053530;28;20385;-59
2021/01/26 04:47:23;;;;;;;1.20;0.75;;;22.50;30.50;;;;;;5054505;28;20413;-60
2021/01/26 04:50:12;;;;;;;1.60;0.90;;;22.60;30.80;;;;;;5045451;28;20382;-59
2021/01/26 04:52:55;;;;;;;2.85;0.70;;;22.60;30.60;;;;;;5054043;28;20390;-59
2021/01/26 04:55:55;;;;;;;1.90;0.85;;;22.60;30.90;;;;;;5059435;28;20910;-59
2021/01/26 04:58:50;;;;;;;2.50;0.68;;;22.70;30.70;;;;;;5064615;28;20415;-59
2021/01/26 05:01:28;;;;;;;1.20;0.60;;;22.60;30.50;;;;;;5072858;28;20449;-66
2021/01/26 05:03:59;;;;;;;1.95;0.82;;;22.60;30.70;;;;;;5074267;28;20379;-68
2021/01/26 05:06:36;;;;;;;2.38;0.90;;;22.50;30.10;;;;;;5073473;28;20424;-71
2021/01/26 05:09:07;;;;;;;3.40;0.90;;;22.50;30.30;;;;;;5073718;28;20399;-72
2021/01/26 05:11:37;;;;;;;3.08;0.95;;;22.50;30.30;;;;;;5074220;28;20384;-61
2021/01/26 05:14:10;;;;;;;2.10;0.82;;;22.50;30.10;;;;;;5072663;28;20424;-59
2021/01/26 05:16:43;;;;;;;1.40;0.77;;;22.50;30.20;;;;;;5073990;28;20508;-63
2021/01/26 05:19:20;;;;;;;1.30;0.80;;;22.50;30.00;;;;;;5071627;28;20400;-59
2021/01/26 05:21:53;;;;;;;1.70;0.87;;;22.50;30.00;;;;;;5073893;28;20458;-59
2021/01/26 05:24:46;;;;;;;2.42;0.90;;;22.50;30.00;;;;;;5073348;28;20388;-60
2021/01/26 05:27:12;;;;;;;2.65;0.90;;;22.40;30.50;;;;;;5068516;28;20425;-72
2021/01/26 05:29:37;;;;;;;2.10;0.80;;;22.40;30.60;;;;;;5053834;28;20392;-66
2021/01/26 05:32:08;;;;;;;3.00;1.08;;;22.40;30.90;;;;;;5053665;28;20390;-73
2021/01/26 05:34:36;;;;;;;5.93;1.20;;;22.40;30.90;;;;;;5053049;28;20397;-65
2021/01/26 05:37:06;;;;;;;3.17;1.10;;;22.40;31.90;;;;;;5052309;28;20409;-62
2021/01/26 05:39:52;;;;;;;4.15;1.20;;;22.40;31.50;;;;;;5052147;28;20425;-62
2021/01/26 05:42:20;;;;;;;3.28;1.80;;;22.40;31.40;;;;;;5052644;28;20396;-66
2021/01/26 05:44:58;;;;;;;3.60;1.40;;;22.50;31.20;;;;;;5051910;28;20906;-71
2021/01/26 05:47:33;;;;;;;7.43;1.40;;;22.50;31.10;;;;;;5053171;28;20467;-66
2021/01/26 05:50:00;;;;;;;3.30;1.17;;;22.50;31.00;;;;;;5053244;28;20385;-60
2021/01/26 05:52:40;;;;;;;5.40;1.30;;;22.50;30.90;;;;;;5051393;28;20447;-60
2021/01/26 05:55:24;;;;;;;3.13;1.10;;;22.50;30.70;;;;;;5058794;28;20400;-60
2021/01/26 05:57:50;;;;;;;4.22;1.20;;;22.50;30.60;;;;;;5072962;28;20848;-60
2021/01/26 06:00:28;;;;;;;3.63;1.20;;;22.50;30.60;;;;;;5066801;28;20466;-59
2021/01/26 06:03:19;;;;;;;4.72;1.38;;;22.50;30.40;;;;;;5051805;28;20390;-61
2021/01/26 06:06:04;;;;;;;4.32;1.20;;;22.50;30.30;;;;;;5067604;28;20405;-59
2021/01/26 06:08:32;;;;;;;2.30;1.10;;;22.50;30.50;;;;;;5050794;28;20385;-58
2021/01/26 06:10:58;;;;;;;5.78;1.20;;;22.50;30.40;;;;;;5051988;28;20385;-58
2021/01/26 06:13:29;;;;;;;6.60;1.35;;;22.40;30.30;;;;;;5068550;28;20900;-58
2021/01/26 06:16:28;;;;;;;4.03;1.30;;;22.30;30.80;;;;;;5071642;28;20880;-58
2021/01/26 06:18:57;;;;;;;3.47;1.17;;;22.30;31.00;;;;;;5072588;28;20399;-58
2021/01/26 06:21:23;;;;;;;4.53;1.17;;;22.30;31.00;;;;;;5071264;28;20391;-58
2021/01/26 06:23:49;;;;;;;5.05;1.20;;;22.30;31.00;;;;;;5072605;28;20376;-58
2021/01/26 06:26:14;;;;;;;3.67;1.20;;;22.30;30.90;;;;;;5072304;28;20422;-58
2021/01/26 06:28:49;;;;;;;4.38;1.15;;;22.30;31.00;;;;;;5070940;28;20398;-58
2021/01/26 06:31:38;;;;;;;3.92;1.17;;;22.30;31.00;;;;;;5070043;28;20396;-62
2021/01/26 06:34:16;;;;;;;4.90;1.37;;;22.30;30.70;;;;;;5068039;28;20550;-58
2021/01/26 06:36:56;;;;;;;5.43;1.23;;;22.30;30.40;;;;;;5069044;28;20546;-60
2021/01/26 06:39:43;;;;;;;4.63;1.10;;;22.30;30.30;;;;;;5071322;28;20409;-58
2021/01/26 06:42:34;;;;;;;2.85;1.05;;;22.30;30.10;;;;;;5070214;28;20437;-58
2021/01/26 06:45:03;;;;;;;2.38;1.10;;;22.20;29.80;;;;;;5070125;28;20482;-58
2021/01/26 06:47:55;;;;;;;3.40;1.30;;;22.20;29.60;;;;;;5067213;28;20935;-60
2021/01/26 06:50:53;;;;;;;4.00;1.10;;;22.20;29.50;;;;;;5055735;28;20388;-58
2021/01/26 06:53:44;;;;;;;2.55;1.20;;;22.20;29.20;;;;;;5033322;28;20419;-58
2021/01/26 06:56:48;;;;;;;2.42;1.02;;;22.20;29.00;;;;;;5058896;28;20399;-58
2021/01/26 06:59:26;;;;;;;2.30;1.10;;;22.10;28.80;;;;;;5071904;28;20475;-58
2021/01/26 07:02:06;;;;;;;2.17;0.93;;;22.10;28.80;;;;;;5071994;28;20393;-58
2021/01/26 07:04:57;;;;;;;1.83;0.98;;;22.10;28.70;;;;;;5071286;28;20740;-58
2021/01/26 07:07:38;;;;;;;1.70;0.90;;;22.10;28.70;;;;;;5071803;28;20525;-58
2021/01/26 07:10:40;;;;;;;2.28;1.02;;;22.10;28.70;;;;;;5070133;28;20437;-58
2021/01/26 07:13:06;;;;;;;2.08;1.00;;;22.00;28.60;;;;;;5042245;28;20895;-59
2021/01/26 07:15:56;;;;;;;2.28;1.00;;;22.00;28.60;;;;;;5071581;28;20433;-59
2021/01/26 07:19:05;;;;;;;1.80;0.90;;;22.00;28.60;;;;;;5067572;28;20740;-73
2021/01/26 07:21:42;;;;;;;1.75;0.80;;;21.90;28.60;;;;;;5071787;28;20379;-73
2021/01/26 07:24:38;;;;;;;1.80;0.90;;;21.90;28.60;;;;;;5070295;28;20490;-71
2021/01/26 07:27:04;;;;;;;1.75;0.80;;;21.90;28.60;;;;;;5071697;28;20499;-74
2021/01/26 07:29:46;;;;;;;1.58;0.80;;;21.90;28.60;;;;;;5071686;28;20525;-58
2021/01/26 07:32:18;;;;;;;1.70;0.90;;;21.90;28.60;;;;;;5087066;28;20879;-59
2021/01/26 07:34:56;;;;;;;1.48;0.80;;;21.90;28.50;;;;;;5071379;28;20399;-59
2021/01/26 07:37:44;;;;;;;1.35;1.00;;;21.90;28.50;;;;;;5070127;28;20400;-66
2021/01/26 07:40:16;;;;;;;1.30;0.90;;;21.90;28.50;;;;;;5070152;28;20395;-58
2021/01/26 07:42:54;;;;;;;1.70;0.85;;;21.90;28.50;;;;;;5071270;28;20387;-58
2021/01/26 07:45:34;;;;;;;1.70;0.70;;;21.90;28.50;;;;;;5071091;28;20391;-59
2021/01/26 07:48:07;;;;;;;1.65;0.90;;;21.90;28.60;;;;;;5071096;28;20404;-73
2021/01/26 07:50:46;;;;;;;1.23;0.77;;;21.80;28.60;;;;;;5069860;28;20947;-58
2021/01/26 07:53:34;;;;;;;2.13;0.93;;;21.80;28.50;;;;;;5071401;28;20400;-61
2021/01/26 07:56:04;;;;;;;1.50;0.90;;;21.80;28.30;;;;;;5064881;28;20399;-61
2021/01/26 07:58:31;;;;;;;3.58;0.95;;;21.80;29.70;;;;;;5065827;28;20475;-70
2021/01/26 08:01:00;;;;;;;1.80;0.85;;;21.80;30.40;;;;;;5084990;28;20902;-72
2021/01/26 08:03:27;;;;;;;2.35;1.02;;;21.70;30.00;;;;;;5065888;28;20388;-72
2021/01/26 08:05:58;;;;;;;2.20;0.85;;;21.80;30.00;;;;;;5070858;28;20461;-59
2021/01/26 08:08:29;;;;;;;1.77;0.82;;;21.80;30.30;;;;;;5073992;28;20387;-59
2021/01/26 08:11:06;;;;;;;1.63;0.90;;;21.80;31.90;;;;;;5074154;28;20396;-58
2021/01/26 08:13:32;;;;;;;1.58;0.85;;;21.80;32.60;;;;;;5073233;28;20471;-59
2021/01/26 08:16:15;;;;;;;1.60;0.95;;;21.90;32.30;;;;;;5073613;28;20387;-71
2021/01/26 08:18:42;;;;;;;2.50;0.80;;;21.80;31.90;;;;;;5058472;28;20396;-73
2021/01/26 08:21:29;;;;;;;1.67;0.90;;;21.90;32.00;;;;;;5060243;28;20740;-73
2021/01/26 08:24:17;;;;;;;1.25;0.77;;;21.90;31.90;;;;;;5069115;28;20394;-58
2021/01/26 08:26:45;;;;;;;2.58;0.90;;;21.90;30.20;;;;;;5087546;28;20425;-66
2021/01/26 08:29:11;;;;;;;2.25;1.02;;;21.90;30.90;;;;;;5073560;28;20391;-58
2021/01/26 08:31:40;;;;;;;4.60;0.90;;;22.00;31.50;;;;;;5074401;28;20474;-58
2021/01/26 08:34:21;;;;;;;1.60;0.70;;;22.00;31.50;;;;;;5074177;28;20419;-58
2021/01/26 08:37:07;;;;;;;1.88;0.80;;;22.10;30.80;;;;;;5072845;28;20408;-58
2021/01/26 08:39:44;;;;;;;2.90;0.80;;;22.10;31.10;;;;;;5072790;28;20453;-59
2021/01/26 08:42:11;;;;;;;1.40;0.77;;;22.20;31.00;;;;;;5073768;28;20394;-59
2021/01/26 08:44:37;;;;;;;1.40;0.80;;;22.20;31.00;;;;;;5073356;28;20439;-69
2021/01/26 08:47:41;;;;;;;2.10;0.70;;;22.20;31.20;;;;;;5074138;28;20422;-58
2021/01/26 08:50:29;;;;;;;2.77;0.73;;;22.20;30.70;;;;;;5073605;28;20726;-58
2021/01/26 08:53:23;;;;;;;2.67;0.88;;;22.20;30.80;;;;;;5074255;28;20417;-58
2021/01/26 08:55:53;;;;;;;1.50;0.57;;;22.20;30.70;;;;;;5073956;28;20387;-58
2021/01/26 08:58:37;;;;;;;2.05;0.65;;;22.20;31.50;;;;;;5073499;28;20388;-59
2021/01/26 09:01:03;;;;;;;3.05;0.80;;;22.30;30.70;;;;;;5072120;28;20470;-59
2021/01/26 09:03:33;;;;;;;2.10;0.60;;;22.20;31.00;;;;;;5071882;28;20747;-58
2021/01/26 09:06:06;;;;;;;1.85;0.77;;;22.30;30.70;;;;;;5073582;28;20419;-59
2021/01/26 09:08:47;;;;;;;1.98;0.70;;;22.30;30.50;;;;;;5071978;28;20396;-61
2021/01/26 09:11:25;;;;;;;3.90;0.83;;;22.20;30.60;;;;;;5073687;28;20395;-69
2021/01/26 09:13:52;;;;;;;1.95;0.57;;;22.20;30.50;;;;;;5073581;28;20380;-69
2021/01/26 09:16:25;;;;;;;2.30;0.60;;;22.20;30.50;;;;;;5073646;28;20763;-62
2021/01/26 09:18:57;;;;;;;1.57;0.60;;;22.10;30.00;;;;;;5088181;28;20457;-62
2021/01/26 09:21:24;;;;;;;2.17;0.68;;;22.20;30.10;;;;;;5073164;28;20957;-62
2021/01/26 09:23:54;;;;;;;1.65;0.60;;;22.20;30.80;;;;;;5073372;28;20450;-59
2021/01/26 09:26:21;;;;;;;1.00;0.60;;;22.20;30.10;;;;;;5073230;28;20930;-61
2021/01/26 09:28:49;;;;;;;0.95;0.60;;;22.30;30.30;;;;;;5073323;28;20392;-65
2021/01/26 09:31:17;;;;;;;1.60;0.70;;;22.30;30.40;;;;;;5072084;28;20391;-58
2021/01/26 09:33:44;;;;;;;1.00;0.50;;;22.20;30.30;;;;;;5073263;28;20403;-59
2021/01/26 09:36:20;;;;;;;2.00;0.60;;;22.30;30.40;;;;;;5073095;28;20831;-59
2021/01/26 09:38:49;;;;;;;2.15;0.60;;;22.30;30.30;;;;;;5071839;28;20426;-59
2021/01/26 09:41:28;;;;;;;2.60;0.50;;;22.30;30.50;;;;;;5071677;28;20395;-58
2021/01/26 09:44:07;;;;;;;2.47;0.60;;;22.30;30.60;;;;;;5072241;28;20400;-59
2021/01/26 09:46:38;;;;;;;2.33;0.60;;;22.30;30.50;;;;;;5072713;28;21125;-59
2021/01/26 09:49:27;;;;;;;1.43;0.60;;;22.30;30.60;;;;;;5072797;28;20456;-59
2021/01/26 09:52:09;;;;;;;1.40;0.50;;;22.30;30.40;;;;;;5071739;28;20909;-68
2021/01/26 09:54:45;;;;;;;1.60;0.50;;;22.30;30.30;;;;;;5072352;28;20517;-58
2021/01/26 09:57:18;;;;;;;1.98;0.50;;;22.40;30.50;;;;;;5072807;28;20400;-59
2021/01/26 09:59:45;;;;;;;2.20;0.47;;;22.30;30.10;;;;;;5072897;28;20387;-58
2021/01/26 10:02:15;;;;;;;1.15;0.40;;;22.30;30.80;;;;;;5072819;28;20383;-68
2021/01/26 10:04:42;;;;;;;3.08;0.40;;;22.30;30.60;;;;;;5070591;28;20441;-59
2021/01/26 10:07:14;;;;;;;2.30;0.47;;;22.30;30.90;;;;;;5072397;28;20423;-59
2021/01/26 10:09:40;;;;;;;3.13;0.50;;;22.30;31.10;;;;;;5072560;28;20431;-60
2021/01/26 10:12:36;;;;;;;2.20;0.60;;;22.30;30.90;;;;;;5072601;28;20870;-67
2021/01/26 10:15:23;;;;;;;2.10;0.50;;;22.30;30.80;;;;;;5072785;28;20392;-59
2021/01/26 10:18:10;;;;;;;2.60;0.60;;;22.30;31.90;;;;;;5072435;28;20474;-60
2021/01/26 10:20:49;;;;;;;1.75;0.60;;;22.30;30.70;;;;;;5071939;28;20399;-59
2021/01/26 10:23:29;;;;;;;1.33;0.55;;;22.30;31.00;;;;;;5072630;28;20474;-58
2021/01/26 10:26:24;;;;;;;1.75;0.65;;;22.30;30.90;;;;;;5072120;28;20402;-59
2021/01/26 10:29:10;;;;;;;1.80;0.40;;;22.20;30.20;;;;;;5071745;28;20394;-58
2021/01/26 10:31:48;;;;;;;2.00;0.50;;;22.20;30.70;;;;;;5072553;28;20800;-57
2021/01/26 10:34:42;;;;;;;2.55;0.50;;;22.20;30.60;;;;;;5071842;28;20884;-63
2021/01/26 10:37:14;;;;;;;2.17;0.50;;;22.20;31.00;;;;;;5070667;28;20903;-60
2021/01/26 10:39:42;;;;;;;2.75;0.57;;;22.20;31.00;;;;;;5072048;28;20388;-57
2021/01/26 10:42:22;;;;;;;2.58;0.50;;;22.20;30.60;;;;;;5071919;28;20387;-59
2021/01/26 10:44:53;;;;;;;1.85;0.45;;;22.20;30.80;;;;;;5071599;28;20479;-57
2021/01/26 10:47:40;;;;;;;1.30;0.40;;;22.20;30.60;;;;;;5071975;28;20935;-58
2021/01/26 10:50:14;;;;;;;2.73;0.60;;;22.20;30.50;;;;;;5071747;28;20451;-59
2021/01/26 10:52:44;;;;;;;1.33;0.47;;;22.20;30.70;;;;;;5071560;28;20384;-59
2021/01/26 10:55:13;;;;;;;1.70;0.47;;;22.20;30.90;;;;;;5071799;28;20437;-65
2021/01/26 10:57:40;;;;;;;1.92;0.40;;;22.20;30.50;;;;;;5071865;28;20384;-62
2021/01/26 11:00:08;;;;;;;0.75;0.30;;;22.20;30.30;;;;;;5071525;28;20386;-58
2021/01/26 11:02:34;;;;;;;1.70;0.40;;;22.20;30.00;;;;;;5071205;28;20387;-59
2021/01/26 11:04:59;;;;;;;1.55;0.40;;;22.20;30.50;;;;;;5071248;28;20384;-59
2021/01/26 11:07:25;;;;;;;2.42;0.40;;;22.10;30.30;;;;;;5071389;28;20422;-58
2021/01/26 11:09:51;;;;;;;1.25;0.50;;;22.10;30.20;;;;;;5071430;28;20384;-64
2021/01/26 11:12:21;;;;;;;0.90;0.40;;;22.10;30.20;;;;;;5070845;28;20418;-74
2021/01/26 11:14:48;;;;;;;1.40;0.50;;;22.00;29.90;;;;;;5085057;28;20427;-70
2021/01/26 11:17:16;;;;;;;1.40;0.50;;;22.10;29.80;;;;;;5070189;28;20423;-60
2021/01/26 11:19:43;;;;;;;0.95;0.40;;;22.00;29.60;;;;;;5070072;28;20467;-58
2021/01/26 11:22:09;;;;;;;1.83;0.50;;;22.00;29.30;;;;;;5064479;28;20398;-58
2021/01/26 11:24:36;;;;;;;0.90;0.50;;;22.00;29.30;;;;;;5069674;28;20391;-58
2021/01/26 11:27:03;;;;;;;0.90;0.40;;;22.00;29.10;;;;;;5070055;28;20411;-59
2021/01/26 11:29:29;;;;;;;1.40;0.43;;;21.90;29.10;;;;;;5067395;28;20388;-58
2021/01/26 11:31:55;;;;;;;0.90;0.50;;;21.90;29.10;;;;;;5069862;28;20722;-58
2021/01/26 11:34:22;;;;;;;0.80;0.43;;;21.90;29.10;;;;;;5069956;28;20474;-61
2021/01/26 11:36:48;;;;;;;1.10;0.50;;;21.90;29.00;;;;;;5069411;28;20783;-57
2021/01/26 11:39:14;;;;;;;0.70;0.40;;;21.90;29.00;;;;;;5069765;28;20463;-58
2021/01/26 11:41:41;;;;;;;1.25;0.50;;;21.90;29.00;;;;;;5069205;28;20426;-58
2021/01/26 11:44:07;;;;;;;0.80;0.50;;;21.90;28.90;;;;;;5069589;28;20820;-58
2021/01/26 11:46:32;;;;;;;1.30;0.40;;;21.80;28.80;;;;;;5069393;28;20458;-58
2021/01/26 11:48:58;;;;;;;0.70;0.40;;;21.80;28.80;;;;;;5069646;28;20763;-58
2021/01/26 11:51:24;;;;;;;0.60;0.30;;;21.90;28.80;;;;;;5069991;28;20388;-71
2021/01/26 11:53:50;;;;;;;0.65;0.32;;;21.80;28.70;;;;;;5070846;28;20395;-58
2021/01/26 11:56:16;;;;;;;0.90;0.50;;;21.80;28.80;;;;;;5070844;28;20391;-58
2021/01/26 11:58:42;;;;;;;0.57;0.40;;;21.80;28.70;;;;;;5086076;28;20403;-58
2021/01/26 12:01:08;;;;;;;0.77;0.40;;;21.80;28.80;;;;;;5070490;28;20756;-58
2021/01/26 12:03:34;;;;;;;0.80;0.30;;;21.80;28.80;;;;;;5070919;28;20387;-57
2021/01/26 12:05:59;;;;;;;0.57;0.30;;;21.80;28.70;;;;;;5070552;28;20399;-58
2021/01/26 12:08:25;;;;;;;0.68;0.40;;;21.80;28.70;;;;;;5070811;28;20400;-57
2021/01/26 12:10:51;;;;;;;0.70;0.30;;;21.80;28.60;;;;;;5070407;28;20390;-58
2021/01/26 12:13:18;;;;;;;0.73;0.35;;;21.80;28.60;;;;;;5070565;28;21040;-58
2021/01/26 12:15:44;;;;;;;0.80;0.30;;;21.80;28.60;;;;;;5070339;28;20451;-58
2021/01/26 12:18:11;;;;;;;0.50;0.30;;;21.70;28.60;;;;;;5070738;28;20935;-58
2021/01/26 12:20:36;;;;;;;0.70;0.40;;;21.80;28.60;;;;;;5070040;28;20860;-58
2021/01/26 12:23:03;;;;;;;0.68;0.30;;;21.70;28.50;;;;;;5071059;28;20418;-58
2021/01/26 12:25:30;;;;;;;0.65;0.40;;;21.70;28.50;;;;;;5070611;28;20384;-58
2021/01/26 12:27:57;;;;;;;0.70;0.30;;;21.70;28.50;;;;;;5070587;28;20406;-61
2021/01/26 12:30:23;;;;;;;0.60;0.30;;;21.70;28.50;;;;;;5070027;28;20387;-58
2021/01/26 12:32:49;;;;;;;0.80;0.40;;;21.70;28.50;;;;;;5069912;28;20430;-58
2021/01/26 12:35:22;;;;;;;0.80;0.30;;;21.70;28.40;;;;;;5070146;28;20400;-58
2021/01/26 12:37:48;;;;;;;2.30;0.40;;;21.60;29.00;;;;;;5070620;28;20953;-65
2021/01/26 12:40:14;;;;;;;1.80;0.30;;;21.70;29.20;;;;;;5070396;28;20475;-61
2021/01/26 12:42:40;;;;;;;1.07;0.40;;;21.70;29.20;;;;;;5070256;28;20387;-72
2021/01/26 12:45:09;;;;;;;0.90;0.32;;;21.60;29.20;;;;;;5070417;28;20398;-59
2021/01/26 12:47:35;;;;;;;1.35;0.50;;;21.70;29.10;;;;;;5070432;28;20403;-65
2021/01/26 12:50:01;;;;;;;1.10;0.40;;;21.70;29.00;;;;;;5070603;28;20376;-65
2021/01/26 12:52:26;;;;;;;0.83;0.40;;;21.70;28.90;;;;;;5071953;28;20427;-70
2021/01/26 12:54:52;;;;;;;1.40;0.30;;;21.70;28.80;;;;;;5073690;28;20384;-66
2021/01/26 12:57:18;;;;;;;0.90;0.40;;;21.70;28.80;;;;;;5074356;28;20414;-64
2021/01/26 12:59:43;;;;;;;1.70;0.40;;;21.70;28.80;;;;;;5074154;28;20494;-58
2021/01/26 13:02:10;;;;;;;0.70;0.40;;;21.70;28.80;;;;;;5074105;28;20384;-61
2021/01/26 13:04:35;;;;;;;0.60;0.30;;;21.70;28.90;;;;;;5073425;28;20395;-68
2021/01/26 13:07:01;;;;;;;2.50;0.40;;;21.70;28.90;;;;;;5073928;28;20408;-69
2021/01/26 13:09:26;;;;;;;0.80;0.40;;;21.60;29.00;;;;;;5073984;28;20380;-67
2021/01/26 13:11:52;;;;;;;2.40;0.40;;;21.60;29.20;;;;;;5073990;28;20460;-62
2021/01/26 13:14:18;;;;;;;2.05;0.65;;;21.60;29.30;;;;;;5073454;28;20386;-65
2021/01/26 13:16:43;;;;;;;1.97;0.50;;;21.70;29.70;;;;;;5073285;28;20398;-64
2021/01/26 13:19:09;;;;;;;2.40;0.50;;;21.70;29.20;;;;;;5073690;28;20379;-74
2021/01/26 13:21:36;;;;;;;1.87;0.40;;;21.70;29.20;;;;;;5073346;28;20971;-58